Time;durP1;ratioP1;P1;durP2;ratioP2;P2;SDS_P1;SDS_P2;PMS_P1;PMS_P2;Temp;Humidity;BMP_temperature;BMP_pressure;BME280_temperature;BME280_humidity;BME280_pressure;Samples;Min_cycle;Max_cycle;Signal;HPM_P1;HPM_P2
2021/06/20 00:01:33;;;;;;;;;16.40;15.00;;;;;26.61;47.15;98648.88;6188474;28;124729;-64
2021/06/20 00:04:36;;;;;;;;;14.00;12.60;;;;;26.55;47.33;98647.44;6179984;28;126690;-65
2021/06/20 00:07:40;;;;;;;;;15.00;14.00;;;;;26.51;47.16;98640.13;6179188;28;125081;-65
2021/06/20 00:10:45;;;;;;;;;14.40;13.80;;;;;26.50;47.36;98641.28;6189280;28;124904;-65
2021/06/20 00:13:48;;;;;;;;;14.40;14.00;;;;;26.47;47.60;98636.41;6187643;28;125932;-64
2021/06/20 00:16:52;;;;;;;;;16.00;15.50;;;;;26.38;47.72;98635.66;6188689;28;126086;-64
2021/06/20 00:19:56;;;;;;;;;14.00;14.00;;;;;26.26;48.13;98628.84;6188723;28;125754;-64
2021/06/20 00:23:00;;;;;;;;;16.00;15.00;;;;;26.22;48.46;98635.38;6171133;28;123616;-64
2021/06/20 00:26:03;;;;;;;;;15.80;15.40;;;;;26.08;48.28;98631.97;6179345;28;124826;-64
2021/06/20 00:29:07;;;;;;;;;15.00;14.00;;;;;26.11;48.58;98634.06;6186783;28;124838;-65
2021/06/20 00:32:11;;;;;;;;;15.00;14.00;;;;;26.05;48.80;98636.19;6186763;28;126887;-64
2021/06/20 00:35:18;;;;;;;;;17.00;16.00;;;;;26.00;49.08;98638.34;6169902;28;124845;-64
2021/06/20 00:38:22;;;;;;;;;15.50;14.50;;;;;25.99;48.88;98631.19;6181625;28;123955;-64
2021/06/20 00:41:26;;;;;;;;;14.00;13.25;;;;;26.01;48.85;98624.19;6188924;28;124979;-64
2021/06/20 00:44:29;;;;;;;;;15.00;14.00;;;;;25.98;48.94;98615.75;6188663;28;125036;-64
2021/06/20 00:47:33;;;;;;;;;16.80;15.00;;;;;25.92;49.11;98615.13;6188971;28;127088;-64
2021/06/20 00:50:37;;;;;;;;;18.00;16.00;;;;;25.79;49.43;98618.91;6187017;28;126350;-64
2021/06/20 00:53:40;;;;;;;;;15.60;15.00;;;;;25.77;49.54;98618.41;6181868;28;124733;-64
2021/06/20 00:56:43;;;;;;;;;15.00;14.00;;;;;25.51;49.66;98588.03;6173788;28;125076;-64
2021/06/20 00:59:48;;;;;;;;;19.75;17.50;;;;;25.62;49.87;98618.91;6187924;28;125732;-65
2021/06/20 01:02:53;;;;;;;;;15.80;14.20;;;;;25.55;50.40;98621.38;6188223;28;124804;-65
2021/06/20 01:05:56;;;;;;;;;17.00;16.00;;;;;25.43;50.58;98610.94;6188061;28;124827;-64
2021/06/20 01:09:00;;;;;;;;;18.00;17.00;;;;;25.46;50.42;98618.59;6186593;28;124682;-64
2021/06/20 01:12:04;;;;;;;;;18.25;17.25;;;;;25.37;50.63;98603.94;6170181;28;125205;-64
2021/06/20 01:15:10;;;;;;;;;17.00;17.00;;;;;25.28;51.08;98614.19;6187969;28;124852;-64
2021/06/20 01:18:15;;;;;;;;;16.00;16.00;;;;;25.19;51.13;98599.56;6186662;28;126011;-64
2021/06/20 01:21:18;;;;;;;;;18.20;17.20;;;;;25.17;51.25;98608.16;6182536;28;126108;-64
2021/06/20 01:24:23;;;;;;;;;18.40;17.00;;;;;25.14;51.52;98597.78;6187115;28;127321;-64
2021/06/20 01:27:29;;;;;;;;;17.00;15.00;;;;;25.05;51.50;98601.69;6172466;28;124782;-64
2021/06/20 01:30:35;;;;;;;;;19.33;19.00;;;;;24.95;51.78;98591.78;6185917;28;124489;-64
2021/06/20 01:33:39;;;;;;;;;17.00;16.00;;;;;24.86;52.04;98591.75;6183841;28;126476;-64
2021/06/20 01:36:42;;;;;;;;;19.00;18.00;;;;;24.85;52.12;98583.78;6185472;28;124952;-64
2021/06/20 01:39:47;;;;;;;;;18.00;17.00;;;;;24.82;52.26;98582.50;6187172;28;126344;-64
2021/06/20 01:42:51;;;;;;;;;19.00;17.80;;;;;24.77;52.27;98579.06;6185653;28;126116;-64
2021/06/20 01:45:55;;;;;;;;;17.40;17.00;;;;;24.69;52.43;98586.19;6168068;28;124235;-64
2021/06/20 01:48:58;;;;;;;;;16.60;16.00;;;;;24.61;52.60;98587.00;6182581;28;126151;-64
2021/06/20 01:52:01;;;;;;;;;19.20;17.20;;;;;24.47;53.35;98586.31;6185521;28;125525;-64
2021/06/20 01:55:08;;;;;;;;;17.00;16.00;;;;;24.38;53.10;98586.28;6150820;28;123047;-64
2021/06/20 01:58:14;;;;;;;;;18.40;17.00;;;;;24.27;53.47;98587.69;6178280;28;125833;-64
2021/06/20 02:01:17;;;;;;;;;16.20;15.00;;;;;24.28;53.45;98583.00;6185274;28;126289;-64
2021/06/20 02:04:21;;;;;;;;;19.00;18.00;;;;;24.16;53.35;98558.78;6185101;28;124888;-64
2021/06/20 02:07:25;;;;;;;;;18.75;18.00;;;;;24.24;53.63;98576.50;6187158;28;123652;-64
2021/06/20 02:10:29;;;;;;;;;19.80;18.00;;;;;24.26;53.56;98569.53;6186742;28;124765;-64
2021/06/20 02:13:33;;;;;;;;;18.00;17.00;;;;;24.32;53.20;98572.97;6187260;28;126182;-64
2021/06/20 02:16:36;;;;;;;;;18.00;16.60;;;;;24.36;52.97;98571.19;6185713;28;124882;-64
2021/06/20 02:19:39;;;;;;;;;22.00;21.20;;;;;24.34;53.47;98567.94;6186990;28;126242;-64
2021/06/20 02:22:43;;;;;;;;;21.00;19.00;;;;;24.27;53.40;98568.41;6185142;28;123881;-64
2021/06/20 02:25:48;;;;;;;;;18.40;17.00;;;;;24.26;53.47;98561.28;6182290;28;124777;-64
2021/06/20 02:28:51;;;;;;;;;18.40;17.00;;;;;24.23;53.52;98564.69;6185338;28;124782;-64
2021/06/20 02:31:54;;;;;;;;;20.40;19.40;;;;;24.12;53.54;98571.56;6179392;28;125805;-64
2021/06/20 02:34:58;;;;;;;;;19.00;18.00;;;;;23.98;54.08;98570.84;6181945;28;124199;-64
2021/06/20 02:38:01;;;;;;;;;19.00;16.20;;;;;23.88;54.29;98577.44;6175446;28;125999;-64
2021/06/20 02:41:06;;;;;;;;;17.50;16.50;;;;;23.75;54.95;98584.63;6184884;28;124583;-64
2021/06/20 02:44:09;;;;;;;;;17.80;16.80;;;;;23.69;54.63;98577.66;6185504;28;126242;-64
2021/06/20 02:47:13;;;;;;;;;16.00;16.00;;;;;23.69;55.20;98579.59;6186400;28;124711;-64
2021/06/20 02:50:17;;;;;;;;;16.00;16.00;;;;;23.74;54.61;98587.72;6183727;28;124740;-64
2021/06/20 02:53:20;;;;;;;;;17.00;15.20;;;;;23.76;54.46;98585.47;6184336;28;127928;-64
2021/06/20 02:56:25;;;;;;;;;16.00;15.20;;;;;23.63;55.12;98591.88;6185130;28;124980;-64
2021/06/20 02:59:28;;;;;;;;;19.00;17.25;;;;;23.54;54.93;98580.81;6184450;28;126012;-64
2021/06/20 03:02:32;;;;;;;;;18.75;17.75;;;;;23.67;54.99;98593.66;6182639;28;124210;-64
2021/06/20 03:05:35;;;;;;;;;17.60;17.00;;;;;23.63;55.25;98600.94;6175349;28;124766;-64
2021/06/20 03:08:38;;;;;;;;;17.00;16.00;;;;;23.67;54.87;98595.59;6185851;28;125065;-64
2021/06/20 03:11:43;;;;;;;;;16.40;16.40;;;;;23.58;55.11;98601.06;6184371;28;124091;-64
2021/06/20 03:14:47;;;;;;;;;19.00;18.00;;;;;23.63;55.27;98600.94;6185060;28;125829;-64
2021/06/20 03:17:50;;;;;;;;;19.00;18.00;;;;;23.69;55.23;98605.19;6184091;28;124604;-64
2021/06/20 03:20:54;;;;;;;;;17.50;16.25;;;;;23.70;54.98;98603.25;6184000;28;125924;-65
2021/06/20 03:23:57;;;;;;;;;19.40;18.40;;;;;23.71;55.16;98594.66;6175728;28;126303;-64
2021/06/20 03:27:02;;;;;;;;;19.00;17.00;;;;;23.79;54.91;98598.63;6178102;28;124708;-64
2021/06/20 03:30:07;;;;;;;;;18.00;17.00;;;;;23.75;54.58;98573.63;6175025;28;125340;-66
2021/06/20 03:33:10;;;;;;;;;19.50;18.00;;;;;23.79;54.47;98571.09;6183131;28;125783;-65
2021/06/20 03:36:13;;;;;;;;;17.50;17.50;;;;;23.82;54.69;98599.91;6185431;28;125612;-64
2021/06/20 03:39:17;;;;;;;;;18.00;17.60;;;;;23.87;54.59;98594.28;6181025;28;126045;-64
2021/06/20 03:42:22;;;;;;;;;19.00;18.00;;;;;23.75;54.92;98584.63;6182611;28;125609;-64
2021/06/20 03:45:25;;;;;;;;;20.80;19.60;;;;;23.69;54.91;98580.41;6183334;28;124698;-65
2021/06/20 03:48:29;;;;;;;;;20.20;18.80;;;;;23.74;54.76;98576.72;6182970;28;126091;-65
2021/06/20 03:51:32;;;;;;;;;20.75;20.00;;;;;23.72;55.12;98584.47;6182738;28;125968;-64
2021/06/20 03:54:36;;;;;;;;;20.00;19.00;;;;;23.77;54.89;98586.28;6182841;28;123619;-64
2021/06/20 03:57:41;;;;;;;;;20.20;17.20;;;;;23.93;54.40;98580.06;6183008;28;124866;-64
2021/06/20 04:00:44;;;;;;;;;20.00;19.00;;;;;24.00;54.39;98576.84;6184844;28;124894;-66
2021/06/20 04:03:47;;;;;;;;;20.00;18.50;;;;;24.07;54.36;98580.78;6182820;28;124822;-66
2021/06/20 04:06:50;;;;;;;;;20.20;19.20;;;;;24.16;53.96;98580.81;6183863;28;122813;-66
2021/06/20 04:09:54;;;;;;;;;19.00;17.20;;;;;24.14;54.15;98578.34;6174953;28;126226;-66
2021/06/20 04:12:59;;;;;;;;;21.00;20.25;;;;;24.04;54.56;98567.63;6175039;28;126458;-66
2021/06/20 04:16:02;;;;;;;;;20.00;19.00;;;;;24.15;54.04;98571.72;6178723;28;124915;-66
2021/06/20 04:19:06;;;;;;;;;21.20;18.60;;;;;24.35;53.83;98569.56;6183138;28;126185;-66
2021/06/20 04:22:09;;;;;;;;;20.25;19.50;;;;;24.39;53.52;98554.81;6166743;28;123972;-66
2021/06/20 04:25:15;;;;;;;;;21.00;20.00;;;;;24.41;53.62;98558.06;6181255;28;127055;-66
2021/06/20 04:28:21;;;;;;;;;21.00;20.00;;;;;24.67;53.24;98558.16;6176007;28;126149;-66
2021/06/20 04:31:24;;;;;;;;;19.33;17.67;;;;;24.77;52.99;98562.53;6166418;28;124611;-66
2021/06/20 04:34:28;;;;;;;;;19.25;17.25;;;;;24.93;53.04;98578.31;6179851;28;125319;-66
2021/06/20 04:37:31;;;;;;;;;18.00;16.60;;;;;25.08;52.51;98581.72;6188802;28;125053;-66
2021/06/20 04:40:35;;;;;;;;;18.00;16.80;;;;;25.24;51.79;98583.69;6186837;28;124976;-66
2021/06/20 04:43:55;;;;;;;;;21.50;19.00;;;;;25.40;51.41;98579.28;6170677;28;125454;-66
2021/06/20 04:46:58;;;;;;;;;20.40;19.40;;;;;25.56;51.43;98579.59;6187747;28;124590;-66
2021/06/20 04:50:03;;;;;;;;;22.00;20.00;;;;;25.48;50.66;98552.81;6186193;28;124834;-66
2021/06/20 04:53:06;;;;;;;;;19.00;18.00;;;;;25.73;50.43;98579.59;6184787;28;126010;-66
2021/06/20 04:56:09;;;;;;;;;22.40;21.00;;;;;25.80;50.56;98584.63;6175712;28;126878;-66
2021/06/20 04:59:14;;;;;;;;;22.00;19.00;;;;;25.77;50.53;98577.78;6184289;28;124814;-66
2021/06/20 05:02:17;;;;;;;;;21.00;20.00;;;;;25.74;50.90;98570.19;6176855;28;126899;-66
2021/06/20 05:05:21;;;;;;;;;19.00;18.50;;;;;25.80;50.62;98571.59;6152590;28;124932;-66
2021/06/20 05:08:25;;;;;;;;;18.60;18.20;;;;;25.88;50.22;98576.31;6167447;28;125297;-66
2021/06/20 05:11:28;;;;;;;;;19.00;18.00;;;;;25.99;50.25;98573.19;6187681;28;126110;-66
2021/06/20 05:14:33;;;;;;;;;20.60;19.00;;;;;25.90;50.20;98553.06;6186704;28;122741;-66
2021/06/20 05:17:36;;;;;;;;;18.00;18.00;;;;;26.11;50.28;98556.72;6186444;28;124827;-66
2021/06/20 05:20:40;;;;;;;;;16.00;16.00;;;;;26.00;50.14;98527.84;6186662;28;125180;-66
2021/06/20 05:23:44;;;;;;;;;19.00;18.75;;;;;26.24;49.85;98541.91;6167926;28;124764;-66
2021/06/20 05:26:47;;;;;;;;;16.20;15.40;;;;;26.28;49.63;98556.69;6184732;28;126233;-66
2021/06/20 05:29:51;;;;;;;;;17.00;16.60;;;;;26.40;49.61;98567.00;6179720;28;126692;-66
2021/06/20 05:32:55;;;;;;;;;21.20;20.20;;;;;26.57;49.55;98566.94;6183495;28;124963;-66
2021/06/20 05:35:58;;;;;;;;;18.00;17.00;;;;;26.70;49.15;98565.88;6175234;28;125695;-66
2021/06/20 05:39:01;;;;;;;;;18.40;16.00;;;;;26.88;48.62;98558.31;6186847;28;126212;-66
2021/06/20 05:42:05;;;;;;;;;21.60;20.00;;;;;26.85;48.43;98554.22;6169194;28;125590;-66
2021/06/20 05:45:12;;;;;;;;;19.80;18.80;;;;;26.98;48.65;98552.34;6185851;28;124151;-66
2021/06/20 05:48:15;;;;;;;;;20.00;19.00;;;;;27.06;48.73;98552.31;6172359;28;124520;-66
2021/06/20 05:51:18;;;;;;;;;18.60;17.00;;;;;27.23;48.47;98551.31;6174701;28;126764;-66
2021/06/20 05:54:21;;;;;;;;;18.00;17.00;;;;;27.36;48.21;98577.94;6168680;28;124031;-66
2021/06/20 05:57:25;;;;;;;;;21.00;18.00;;;;;27.22;47.85;98571.06;6174958;28;126007;-66
2021/06/20 06:00:30;;;;;;;;;20.00;18.00;;;;;27.50;47.71;98574.91;6183024;28;124735;-66
2021/06/20 06:03:34;;;;;;;;;18.50;17.50;;;;;27.63;47.82;98581.28;6185400;28;124644;-66
2021/06/20 06:06:37;;;;;;;;;20.00;18.00;;;;;27.77;47.59;98582.59;6186464;28;125915;-66
2021/06/20 06:09:41;;;;;;;;;17.75;17.75;;;;;27.93;47.63;98591.88;6186784;28;125010;-66
2021/06/20 06:12:44;;;;;;;;;20.00;19.00;;;;;28.01;46.83;98585.44;6179714;28;126442;-66
2021/06/20 06:15:48;;;;;;;;;19.60;18.00;;;;;27.93;45.92;98566.94;6172150;28;125585;-66
2021/06/20 06:18:51;;;;;;;;;20.00;17.25;;;;;28.22;46.62;98592.88;6176578;28;125126;-65
2021/06/20 06:21:55;;;;;;;;;18.00;17.00;;;;;28.44;46.99;98595.22;6176241;28;126467;-66
2021/06/20 06:24:58;;;;;;;;;19.00;18.00;;;;;28.39;45.60;98584.38;6182150;28;123808;-66
2021/06/20 06:28:01;;;;;;;;;17.00;17.00;;;;;28.55;46.05;98590.00;6170416;28;126165;-65
2021/06/20 06:31:07;;;;;;;;;18.20;17.80;;;;;28.52;46.12;98569.34;6176645;28;124746;-65
2021/06/20 06:34:11;;;;;;;;;18.00;17.00;;;;;28.63;45.48;98583.56;6184196;28;124885;-66
2021/06/20 06:37:14;;;;;;;;;16.40;16.00;;;;;28.66;46.18;98580.06;6172957;28;126168;-66
2021/06/20 06:40:18;;;;;;;;;20.00;17.00;;;;;28.84;45.51;98593.38;6182636;28;125081;-66
2021/06/20 06:43:21;;;;;;;;;20.00;18.20;;;;;28.84;45.52;98587.81;6181477;28;126012;-66
2021/06/20 06:46:26;;;;;;;;;18.25;18.25;;;;;29.10;45.29;98606.03;6177123;28;127100;-66
2021/06/20 06:49:29;;;;;;;;;17.00;16.00;;;;;29.23;44.72;98602.06;6175781;28;125234;-65
2021/06/20 06:52:32;;;;;;;;;17.00;16.00;;;;;29.34;44.90;98605.19;6184803;28;125716;-66
2021/06/20 06:55:36;;;;;;;;;18.00;16.40;;;;;29.49;44.31;98604.47;6186245;28;126446;-65
2021/06/20 06:58:39;;;;;;;;;17.50;15.00;;;;;29.62;44.08;98606.81;6182206;28;124898;-65
2021/06/20 07:01:45;;;;;;;;;15.00;15.00;;;;;29.66;44.12;98604.16;6185328;28;124892;-65
2021/06/20 07:04:49;;;;;;;;;19.00;17.00;;;;;29.82;43.92;98596.66;6181875;28;123290;-65
2021/06/20 07:07:56;;;;;;;;;17.00;16.00;;;;;29.97;43.41;98607.03;6185259;28;126428;-66
2021/06/20 07:11:00;;;;;;;;;16.00;16.00;;;;;29.83;42.99;98586.34;6185046;28;124995;-66
2021/06/20 07:14:03;;;;;;;;;18.50;16.00;;;;;30.08;43.85;98615.66;6157608;28;125118;-66
2021/06/20 07:17:09;;;;;;;;;18.00;17.00;;;;;29.97;43.47;98612.59;6175535;28;123662;-65
2021/06/20 07:20:18;;;;;;;;;16.60;16.00;;;;;30.17;43.01;98604.34;6173885;28;125956;-66
2021/06/20 07:23:21;;;;;;;;;16.00;15.40;;;;;30.22;41.96;98602.13;6173533;28;124864;-65
2021/06/20 07:26:24;;;;;;;;;17.00;17.00;;;;;30.24;42.00;98599.00;6171968;28;126359;-65
2021/06/20 07:29:27;;;;;;;;;20.00;18.00;;;;;30.40;42.17;98599.78;6175687;28;124703;-65
2021/06/20 07:32:32;;;;;;;;;19.00;16.00;;;;;30.61;41.66;98588.41;6173612;28;126082;-65
2021/06/20 07:35:35;;;;;;;;;15.00;14.00;;;;;30.83;41.85;98587.75;6179414;28;126261;-65
2021/06/20 07:38:39;;;;;;;;;15.80;14.80;;;;;31.04;40.90;98587.44;6180750;28;126287;-65
2021/06/20 07:41:42;;;;;;;;;17.00;16.00;;;;;31.24;41.20;98584.31;6180654;28;124566;-66
2021/06/20 07:44:45;;;;;;;;;16.00;16.00;;;;;31.37;39.62;98585.78;6185554;28;126574;-66
2021/06/20 07:47:52;;;;;;;;;17.40;16.40;;;;;31.33;40.46;98559.03;6183229;28;124861;-66
2021/06/20 07:50:56;;;;;;;;;19.00;16.60;;;;;31.74;39.80;98577.81;6167384;28;124775;-66
2021/06/20 07:53:59;;;;;;;;;16.75;15.75;;;;;31.66;38.68;98566.91;6184006;28;125401;-66
2021/06/20 07:57:03;;;;;;;;;16.40;15.00;;;;;31.81;39.15;98569.56;6183998;28;125029;-66
2021/06/20 08:00:09;;;;;;;;;17.40;17.00;;;;;31.92;38.96;98577.31;6183301;28;125803;-66
2021/06/20 08:03:18;;;;;;;;;14.50;14.50;;;;;31.87;39.09;98588.78;6168841;28;123915;-66
2021/06/20 08:06:22;;;;;;;;;17.40;16.00;;;;;32.00;38.75;98585.47;6189109;28;126691;-66
2021/06/20 08:09:25;;;;;;;;;17.00;15.40;;;;;32.23;39.34;98583.53;6178015;28;126030;-66
2021/06/20 08:12:28;;;;;;;;;16.40;14.40;;;;;32.43;38.35;98575.06;6184997;28;124774;-66
2021/06/20 08:15:32;;;;;;;;;15.75;15.25;;;;;32.49;37.89;98577.19;6171707;28;124829;-66
2021/06/20 08:18:36;;;;;;;;;14.20;13.80;;;;;32.39;37.51;98577.81;6183971;28;125028;-66
2021/06/20 08:21:42;;;;;;;;;14.00;14.00;;;;;32.62;38.61;98572.19;6182479;28;125788;-66
2021/06/20 08:24:46;;;;;;;;;16.00;16.00;;;;;32.61;37.56;98565.81;6180388;28;125878;-66
2021/06/20 08:27:49;;;;;;;;;15.75;15.00;;;;;32.88;37.47;98571.44;6175830;28;125915;-66
2021/06/20 08:30:53;;;;;;;;;15.40;14.80;;;;;33.00;36.25;98562.81;6173633;28;126299;-67
2021/06/20 08:33:58;;;;;;;;;15.00;14.20;;;;;32.98;36.46;98570.78;6181890;28;126320;-66
2021/06/20 08:37:03;;;;;;;;;14.40;14.40;;;;;32.97;36.41;98553.22;6187031;28;125154;-66
2021/06/20 08:40:07;;;;;;;;;15.00;14.67;;;;;32.97;36.58;98541.22;6174749;28;125113;-66
2021/06/20 08:43:10;;;;;;;;;16.40;15.40;;;;;33.39;37.04;98560.56;6184922;28;124782;-66
2021/06/20 08:46:14;;;;;;;;;15.00;14.50;;;;;33.71;35.79;98564.56;6169882;28;126032;-66
2021/06/20 08:49:19;;;;;;;;;16.20;15.20;;;;;34.01;35.49;98558.09;6162356;28;126821;-66
2021/06/20 08:52:22;;;;;;;;;15.00;14.00;;;;;34.09;34.26;98540.97;6183366;28;124973;-66
2021/06/20 08:55:25;;;;;;;;;13.20;12.80;;;;;34.09;34.84;98526.19;6179931;28;124892;-66
2021/06/20 08:58:33;;;;;;;;;13.40;13.40;;;;;34.39;34.70;98537.25;6172086;28;126285;-67
2021/06/20 09:01:36;;;;;;;;;15.80;15.40;;;;;34.65;33.13;98553.84;6187409;28;126867;-67
2021/06/20 09:04:41;;;;;;;;;14.00;13.00;;;;;34.84;34.20;98553.63;6169173;28;125784;-67
2021/06/20 09:07:46;;;;;;;;;13.20;12.80;;;;;35.03;33.57;98544.09;6187518;28;125632;-67
2021/06/20 09:10:49;;;;;;;;;14.20;14.00;;;;;35.31;33.55;98541.47;6171450;28;124884;-67
2021/06/20 09:14:01;;;;;;;;;14.40;14.00;;;;;35.33;32.81;98529.88;6171250;28;126144;-67
2021/06/20 09:17:04;;;;;;;;;13.00;12.75;;;;;35.39;33.69;98537.47;6175047;28;124298;-67
2021/06/20 09:20:11;;;;;;;;;11.60;11.20;;;;;35.42;32.09;98544.31;6182537;28;124374;-67
2021/06/20 09:23:16;;;;;;;;;12.00;12.00;;;;;35.44;32.04;98542.69;6173576;28;126129;-67
2021/06/20 09:26:33;;;;;;;;;12.40;11.40;;;;;35.43;31.91;98538.28;6171428;28;125792;-67
2021/06/20 09:29:38;;;;;;;;;12.00;12.00;;;;;35.42;31.56;98536.72;6176446;28;125044;-67
2021/06/20 09:32:41;;;;;;;;;11.20;10.60;;;;;35.74;31.80;98536.00;6170137;28;125095;-67
2021/06/20 09:35:48;;;;;;;;;11.00;10.40;;;;;36.00;31.21;98544.09;6185281;28;124578;-67
2021/06/20 09:38:51;;;;;;;;;11.80;11.00;;;;;36.16;30.47;98543.72;6186949;28;124531;-67
2021/06/20 09:41:59;;;;;;;;;11.60;10.60;;;;;36.28;30.65;98549.75;6180657;28;126265;-67
2021/06/20 09:45:03;;;;;;;;;10.00;9.00;;;;;36.41;30.27;98542.50;6184482;28;126448;-67
2021/06/20 09:48:07;;;;;;;;;12.00;11.00;;;;;36.29;29.75;98539.31;6183897;28;124401;-67
2021/06/20 09:51:16;;;;;;;;;9.00;9.00;;;;;36.10;27.95;98542.47;6177194;28;124970;-67
2021/06/20 09:54:27;;;;;;;;;6.00;6.00;;;;;35.62;27.12;98537.97;6183970;28;125765;-67
2021/06/20 09:57:39;;;;;;;;;9.75;9.50;;;;;35.03;28.08;98504.88;6186997;28;124935;-67
2021/06/20 10:00:44;;;;;;;;;9.00;8.75;;;;;35.22;29.15;98517.81;6185574;28;126054;-67
2021/06/20 10:03:48;;;;;;;;;7.00;7.00;;;;;35.13;28.65;98509.75;6186391;28;126517;-67
2021/06/20 10:06:53;;;;;;;;;7.00;7.00;;;;;35.18;27.81;98510.19;6185965;28;126016;-67
2021/06/20 10:09:58;;;;;;;;;7.00;7.00;;;;;34.84;27.60;98479.97;6183759;28;126951;-67
2021/06/20 10:13:03;;;;;;;;;7.00;7.00;;;;;35.09;27.38;98490.09;6185225;28;124374;-67
2021/06/20 10:16:22;;;;;;;;;9.67;9.00;;;;;34.77;27.39;98467.53;6176305;28;124925;-67
2021/06/20 10:19:30;;;;;;;;;8.60;8.00;;;;;35.29;27.50;98482.19;6183547;28;126193;-67
2021/06/20 10:22:39;;;;;;;;;7.00;7.00;;;;;35.67;28.86;98489.13;6168637;28;125605;-67
2021/06/20 10:25:43;;;;;;;;;7.00;6.40;;;;;36.11;26.97;98483.16;6186459;28;124554;-67
2021/06/20 10:28:51;;;;;;;;;8.00;7.00;;;;;36.30;27.73;98481.97;6186910;28;124738;-67
2021/06/20 10:31:55;;;;;;;;;9.00;8.00;;;;;36.33;28.20;98492.38;6180738;28;125853;-67
2021/06/20 10:35:01;;;;;;;;;8.00;8.00;;;;;36.33;27.83;98487.56;6186817;28;124940;-67
2021/06/20 10:38:06;;;;;;;;;9.00;9.00;;;;;36.23;27.46;98487.56;6181245;28;126826;-67
2021/06/20 10:41:21;;;;;;;;;9.00;8.00;;;;;36.33;27.09;98495.19;6177008;28;125907;-67
2021/06/20 10:44:25;;;;;;;;;8.00;8.00;;;;;36.41;26.83;98491.16;6180574;28;125990;-67
2021/06/20 10:47:30;;;;;;;;;8.25;8.25;;;;;36.34;27.61;98475.16;6183898;28;124806;-68
2021/06/20 10:50:38;;;;;;;;;8.00;8.00;;;;;36.09;27.06;98488.38;6177658;28;124602;-67
2021/06/20 10:53:44;;;;;;;;;8.00;8.00;;;;;36.00;26.53;98482.34;6169210;28;96711;-67
2021/06/20 10:56:56;;;;;;;;;7.75;7.00;;;;;35.85;27.45;98481.53;6184393;28;127111;-67
2021/06/20 10:59:59;;;;;;;;;9.00;9.00;;;;;36.04;27.29;98486.75;6184613;28;125448;-67
2021/06/20 11:03:10;;;;;;;;;6.00;6.00;;;;;36.36;27.12;98477.56;6170585;28;126327;-67
2021/06/20 11:06:20;;;;;;;;;7.50;7.00;;;;;36.49;27.06;98470.31;6174576;28;125440;-67
2021/06/20 11:09:35;;;;;;;;;8.20;7.20;;;;;36.64;26.35;98479.53;6171545;28;126060;-67
2021/06/20 11:12:38;;;;;;;;;7.00;7.00;;;;;36.70;25.56;98475.88;6185418;28;125969;-67
2021/06/20 11:15:42;;;;;;;;;8.00;8.00;;;;;36.62;25.52;98476.31;6181871;28;126621;-67
2021/06/20 11:18:45;;;;;;;;;8.00;7.00;;;;;36.26;25.49;98472.75;6184790;28;123802;-67
2021/06/20 11:21:53;;;;;;;;;7.00;7.00;;;;;36.40;25.20;98467.13;6177313;28;126239;-67
2021/06/20 11:24:57;;;;;;;;;6.60;6.20;;;;;36.28;24.79;98456.31;6171590;28;125074;-67
2021/06/20 11:28:00;;;;;;;;;8.00;8.00;;;;;36.25;25.46;98459.91;6158457;28;124988;-67
2021/06/20 11:31:09;;;;;;;;;6.25;6.00;;;;;36.47;26.38;98448.25;6184635;28;125151;-67
2021/06/20 11:34:12;;;;;;;;;8.00;7.00;;;;;36.45;25.92;98447.06;6183538;28;124672;-67
2021/06/20 11:37:18;;;;;;;;;8.00;8.00;;;;;36.43;24.87;98446.66;6188081;28;126696;-67
2021/06/20 11:40:24;;;;;;;;;8.00;8.00;;;;;36.56;26.46;98458.25;6185838;28;126694;-67
2021/06/20 11:43:28;;;;;;;;;7.00;6.00;;;;;36.47;24.58;98453.84;6183308;28;126184;-67
2021/06/20 11:46:33;;;;;;;;;5.00;5.00;;;;;36.79;23.91;98442.56;6187480;28;126366;-67
2021/06/20 11:49:36;;;;;;;;;7.00;6.00;;;;;37.20;23.75;98436.38;6180798;28;127366;-67
2021/06/20 11:52:40;;;;;;;;;8.00;8.00;;;;;37.40;24.06;98436.69;6189174;28;125233;-67
2021/06/20 11:55:47;;;;;;;;;7.00;7.00;;;;;37.54;24.11;98433.78;6187584;28;124383;-67
2021/06/20 11:58:50;;;;;;;;;6.00;6.00;;;;;37.04;24.21;98422.81;6189464;28;124804;-67
2021/06/20 12:01:54;;;;;;;;;6.00;6.00;;;;;36.70;21.86;98427.38;6183649;28;125054;-67
2021/06/20 12:04:57;;;;;;;;;5.33;5.00;;;;;36.88;23.55;98409.22;6181228;28;126216;-68
2021/06/20 12:08:01;;;;;;;;;5.00;5.00;;;;;37.12;23.06;98404.72;6188180;28;125051;-67
2021/06/20 12:11:06;;;;;;;;;6.00;6.00;;;;;37.41;24.23;98416.59;6181256;28;124879;-67
2021/06/20 12:14:20;;;;;;;;;5.00;5.00;;;;;37.74;23.07;98404.72;6174530;28;126179;-67
2021/06/20 12:17:23;;;;;;;;;6.00;6.00;;;;;38.14;22.61;98403.19;6178541;28;124670;-67
2021/06/20 12:20:30;;;;;;;;;6.00;6.00;;;;;38.30;22.55;98404.66;6181427;28;125211;-68
2021/06/20 12:23:36;;;;;;;;;5.20;5.20;;;;;38.37;22.21;98396.09;6173231;28;125166;-68
2021/06/20 12:26:48;;;;;;;;;7.60;7.00;;;;;38.04;22.67;98401.28;6173596;28;124837;-68
2021/06/20 12:29:51;;;;;;;;;10.80;9.80;;;;;38.01;22.77;98390.06;6176728;28;125773;-67
2021/06/20 12:32:55;;;;;;;;;6.50;6.50;;;;;37.81;23.60;98391.81;6173631;28;124730;-67
2021/06/20 12:36:00;;;;;;;;;7.00;7.00;;;;;37.44;24.46;98396.06;6172129;28;124995;-67
2021/06/20 12:39:05;;;;;;;;;8.00;7.00;;;;;37.69;25.75;98387.47;6173976;28;125125;-67
2021/06/20 12:42:10;;;;;;;;;7.00;7.00;;;;;37.63;25.58;98389.16;6177647;28;125025;-67
2021/06/20 12:45:25;;;;;;;;;7.00;7.00;;;;;37.61;24.70;98391.56;6172777;28;123445;-67
2021/06/20 12:48:35;;;;;;;;;6.60;6.00;;;;;37.78;25.91;98389.84;6168797;28;125436;-67
2021/06/20 12:51:41;;;;;;;;;7.00;7.00;;;;;37.77;25.11;98388.22;6174123;28;125949;-67
2021/06/20 12:54:55;;;;;;;;;7.00;7.00;;;;;37.82;25.09;98388.59;6152840;28;123755;-67
2021/06/20 12:58:02;;;;;;;;;8.00;7.00;;;;;37.74;26.08;98375.78;6175903;28;127763;-67
2021/06/20 13:01:09;;;;;;;;;10.00;9.00;;;;;37.55;26.09;98371.50;6161732;28;125489;-67
2021/06/20 13:04:14;;;;;;;;;8.00;7.00;;;;;37.53;24.72;98373.97;6170845;28;124616;-67
2021/06/20 13:07:30;;;;;;;;;7.20;7.00;;;;;37.28;24.87;98378.94;6185955;28;125872;-67
2021/06/20 13:10:34;;;;;;;;;8.00;8.00;;;;;37.03;25.19;98381.06;6180986;28;124764;-67
2021/06/20 13:13:38;;;;;;;;;6.00;6.00;;;;;37.23;25.73;98388.59;6178619;28;125283;-67
2021/06/20 13:16:43;;;;;;;;;8.00;7.00;;;;;36.96;25.08;98372.66;6176812;28;124948;-68
2021/06/20 13:19:46;;;;;;;;;7.00;7.00;;;;;37.19;25.51;98389.84;6178873;28;124731;-67
2021/06/20 13:22:49;;;;;;;;;6.40;6.00;;;;;37.46;25.92;98388.03;6173073;28;125103;-67
2021/06/20 13:25:53;;;;;;;;;7.00;6.00;;;;;36.90;24.99;98394.75;6181252;28;125834;-67
2021/06/20 13:28:57;;;;;;;;;6.00;6.00;;;;;37.10;24.38;98386.66;6187402;28;124823;-68
2021/06/20 13:32:00;;;;;;;;;7.00;7.00;;;;;36.96;24.45;98393.13;6169961;28;125645;-67
2021/06/20 13:35:07;;;;;;;;;6.00;6.00;;;;;36.85;24.89;98389.56;6172184;28;124797;-67
2021/06/20 13:38:10;;;;;;;;;7.00;7.00;;;;;36.76;25.08;98384.38;6165800;28;126113;-67
2021/06/20 13:41:13;;;;;;;;;6.00;5.25;;;;;37.03;25.99;98389.47;6181628;28;126079;-67
2021/06/20 13:44:18;;;;;;;;;6.20;6.00;;;;;36.95;25.68;98376.69;6180205;28;126119;-67
2021/06/20 13:47:21;;;;;;;;;5.00;5.00;;;;;36.90;25.18;98384.31;6184490;28;126147;-67
2021/06/20 13:50:24;;;;;;;;;5.25;5.25;;;;;36.77;25.10;98380.38;6185313;28;125952;-67
2021/06/20 13:53:28;;;;;;;;;7.00;6.80;;;;;36.75;25.65;98379.97;6186149;28;126861;-67
2021/06/20 13:56:31;;;;;;;;;6.00;6.00;;;;;36.73;26.18;98373.16;6183844;28;125874;-67
2021/06/20 13:59:35;;;;;;;;;6.00;5.00;;;;;36.95;25.45;98382.31;6176201;28;125176;-67
2021/06/20 14:02:39;;;;;;;;;8.00;7.00;;;;;37.12;24.52;98376.63;6183754;28;126404;-68
2021/06/20 14:05:43;;;;;;;;;6.40;6.40;;;;;36.81;25.88;98360.69;6177860;28;123563;-68